Time;durP1;ratioP1;P1;durP2;ratioP2;P2;SDS_P1;SDS_P2;PMS_P1;PMS_P2;Temp;Humidity;BMP_temperature;BMP_pressure;BME280_temperature;BME280_humidity;BME280_pressure;Samples;Min_cycle;Max_cycle;Signal;HPM_P1;HPM_P2
2022/07/19 00:01:42;;;;;;;7.70;3.60;;;26.70;68.00;;;;;;5094920;28;20024;-75
2022/07/19 00:04:07;;;;;;;4.30;4.00;;;26.60;68.30;;;;;;5094794;28;20036;-75
2022/07/19 00:06:33;;;;;;;4.97;3.95;;;26.60;68.70;;;;;;5076675;28;20028;-75
2022/07/19 00:09:00;;;;;;;4.55;4.25;;;26.50;69.20;;;;;;5094971;28;20022;-75
2022/07/19 00:11:25;;;;;;;4.20;3.90;;;26.50;69.50;;;;;;5094613;28;20391;-75
2022/07/19 00:13:51;;;;;;;6.03;4.85;;;26.40;70.00;;;;;;5094719;28;20024;-75
2022/07/19 00:16:17;;;;;;;4.65;4.28;;;26.50;70.60;;;;;;5094685;28;20020;-75
2022/07/19 00:18:43;;;;;;;4.50;4.15;;;26.50;70.80;;;;;;5094665;28;20032;-75
2022/07/19 00:21:09;;;;;;;4.80;4.25;;;26.50;71.10;;;;;;5094779;28;20020;-75
2022/07/19 00:23:34;;;;;;;4.82;4.32;;;26.40;71.40;;;;;;5094677;28;20020;-75
2022/07/19 00:26:02;;;;;;;5.45;5.00;;;26.40;71.70;;;;;;5094524;28;20032;-75
2022/07/19 00:28:27;;;;;;;5.03;4.60;;;26.40;72.20;;;;;;5094422;28;20035;-74
2022/07/19 00:30:53;;;;;;;5.05;4.63;;;26.40;72.40;;;;;;5076331;28;20020;-74
2022/07/19 00:33:19;;;;;;;5.10;4.57;;;26.40;72.60;;;;;;5094527;28;20032;-75
2022/07/19 00:35:45;;;;;;;4.68;4.30;;;26.40;72.80;;;;;;5075922;28;20031;-75
2022/07/19 00:38:12;;;;;;;4.82;4.25;;;26.30;73.30;;;;;;5094263;28;20024;-75
2022/07/19 00:40:40;;;;;;;4.70;4.28;;;26.40;73.50;;;;;;5094161;28;20034;-75
2022/07/19 00:43:07;;;;;;;5.40;4.68;;;26.40;73.50;;;;;;5075956;28;20420;-74
2022/07/19 00:45:33;;;;;;;5.10;4.63;;;26.40;73.80;;;;;;5094168;28;20051;-75
2022/07/19 00:47:59;;;;;;;5.47;5.03;;;26.30;74.10;;;;;;5094403;28;20028;-75
2022/07/19 00:50:25;;;;;;;4.85;4.45;;;26.30;74.70;;;;;;5094099;28;20450;-74
2022/07/19 00:53:00;;;;;;;5.07;4.57;;;26.30;74.60;;;;;;5094146;28;20036;-75
2022/07/19 00:55:28;;;;;;;5.18;4.72;;;26.30;74.80;;;;;;5094013;28;20115;-75
2022/07/19 00:57:56;;;;;;;5.47;4.95;;;26.30;74.90;;;;;;5094213;28;20024;-75
2022/07/19 01:00:22;;;;;;;4.93;4.63;;;26.40;75.00;;;;;;5093882;28;20020;-74
2022/07/19 01:02:48;;;;;;;4.47;4.18;;;26.30;75.10;;;;;;5093632;28;20071;-75
2022/07/19 01:05:14;;;;;;;6.07;4.85;;;26.30;75.30;;;;;;5093850;28;20028;-75
2022/07/19 01:07:41;;;;;;;5.05;4.50;;;26.30;75.50;;;;;;5094021;28;20020;-75
2022/07/19 01:10:09;;;;;;;4.70;4.40;;;26.20;75.60;;;;;;5075601;28;20499;-75
2022/07/19 01:12:35;;;;;;;5.10;4.70;;;26.30;76.10;;;;;;5075456;28;20429;-75
2022/07/19 01:15:02;;;;;;;5.35;4.95;;;26.20;76.10;;;;;;5093694;28;20081;-75
2022/07/19 01:17:29;;;;;;;5.40;4.47;;;26.20;76.50;;;;;;5075027;28;20031;-75
2022/07/19 01:19:55;;;;;;;5.22;4.72;;;26.10;76.90;;;;;;5093601;28;20076;-75
2022/07/19 01:22:21;;;;;;;7.20;4.57;;;26.10;77.20;;;;;;5093591;28;20091;-75
2022/07/19 01:24:47;;;;;;;5.68;4.70;;;26.10;77.60;;;;;;5093483;28;20024;-75
2022/07/19 01:27:13;;;;;;;5.70;5.20;;;26.00;78.20;;;;;;5093496;28;20541;-75
2022/07/19 01:29:38;;;;;;;4.43;4.03;;;26.00;78.60;;;;;;5093468;28;20073;-75
2022/07/19 01:32:05;;;;;;;5.63;5.20;;;25.90;79.00;;;;;;5093487;28;20479;-74
2022/07/19 01:34:32;;;;;;;5.22;4.53;;;25.90;79.10;;;;;;5075214;28;20027;-75
2022/07/19 01:36:58;;;;;;;5.35;4.88;;;25.90;79.50;;;;;;5093163;28;20024;-75
2022/07/19 01:39:23;;;;;;;5.10;4.70;;;26.00;79.80;;;;;;5075240;28;20024;-75
2022/07/19 01:41:49;;;;;;;5.30;4.90;;;25.80;80.20;;;;;;5093683;28;20498;-75
2022/07/19 01:44:15;;;;;;;5.03;4.57;;;25.80;80.50;;;;;;5093286;28;20089;-74
2022/07/19 01:46:41;;;;;;;10.38;6.10;;;25.80;80.80;;;;;;5093479;28;20028;-75
2022/07/19 01:49:07;;;;;;;5.32;5.03;;;25.70;81.10;;;;;;5075403;28;20020;-75
2022/07/19 01:51:33;;;;;;;5.45;5.03;;;25.70;81.30;;;;;;5093161;28;20016;-75
2022/07/19 01:53:58;;;;;;;5.20;4.80;;;25.70;81.40;;;;;;5074993;28;20395;-75
2022/07/19 01:56:24;;;;;;;5.50;5.10;;;25.70;81.50;;;;;;5093140;28;20107;-75
2022/07/19 01:58:50;;;;;;;4.75;4.38;;;25.70;81.80;;;;;;5093427;28;20020;-75
2022/07/19 02:01:16;;;;;;;5.50;5.07;;;25.60;82.00;;;;;;5093010;28;20020;-75
2022/07/19 02:03:42;;;;;;;6.30;5.70;;;25.60;81.80;;;;;;5092882;28;20076;-75
2022/07/19 02:06:08;;;;;;;5.78;5.30;;;25.70;81.90;;;;;;5092998;28;20399;-75
2022/07/19 02:08:33;;;;;;;5.80;5.25;;;25.60;82.20;;;;;;5093111;28;20026;-74
2022/07/19 02:10:59;;;;;;;5.55;4.93;;;25.70;82.20;;;;;;5093204;28;20376;-74
2022/07/19 02:13:25;;;;;;;6.70;5.80;;;25.70;82.10;;;;;;5093048;28;20028;-74
2022/07/19 02:15:51;;;;;;;5.70;5.30;;;25.70;82.10;;;;;;5092782;28;20077;-75
2022/07/19 02:18:18;;;;;;;5.22;4.85;;;25.60;81.90;;;;;;5093155;28;20038;-75
2022/07/19 02:20:44;;;;;;;6.80;6.10;;;25.50;81.70;;;;;;5093156;28;20024;-75
2022/07/19 02:23:09;;;;;;;5.55;5.05;;;25.60;81.50;;;;;;5092912;28;20537;-75
2022/07/19 02:25:35;;;;;;;5.63;5.25;;;25.50;81.50;;;;;;5092745;28;20032;-74
2022/07/19 02:28:01;;;;;;;5.30;4.90;;;25.50;82.20;;;;;;5092882;28;20122;-74
2022/07/19 02:30:28;;;;;;;5.53;5.13;;;25.50;82.00;;;;;;5095564;28;20051;-75
2022/07/19 02:32:53;;;;;;;6.05;5.50;;;25.50;81.60;;;;;;5096694;28;20040;-75
2022/07/19 02:35:19;;;;;;;5.95;5.45;;;25.40;81.20;;;;;;5096598;28;20036;-75
2022/07/19 02:37:45;;;;;;;5.55;5.05;;;25.40;81.10;;;;;;5097104;28;20020;-75
2022/07/19 02:40:11;;;;;;;5.10;4.68;;;25.40;81.10;;;;;;5078381;28;20081;-75
2022/07/19 02:42:37;;;;;;;6.03;5.43;;;25.30;81.30;;;;;;5096618;28;20019;-74
2022/07/19 02:45:04;;;;;;;4.93;4.50;;;25.20;81.30;;;;;;5096610;28;20020;-75
2022/07/19 02:47:30;;;;;;;5.20;4.70;;;25.20;81.50;;;;;;5096487;28;20085;-75
2022/07/19 02:49:56;;;;;;;5.53;5.13;;;25.20;81.20;;;;;;5096372;28;20032;-75
2022/07/19 02:52:22;;;;;;;5.40;5.00;;;25.20;80.90;;;;;;5096420;28;20094;-75
2022/07/19 02:54:47;;;;;;;5.82;5.30;;;25.20;80.50;;;;;;5096327;28;20495;-75
2022/07/19 02:57:13;;;;;;;4.80;4.50;;;25.20;80.60;;;;;;5096188;28;20024;-75
2022/07/19 02:59:39;;;;;;;5.03;4.55;;;25.10;80.30;;;;;;5096316;28;20025;-75
2022/07/19 03:02:05;;;;;;;5.95;4.80;;;25.10;80.30;;;;;;5077839;28;20107;-75
2022/07/19 03:04:30;;;;;;;6.97;4.65;;;25.10;80.10;;;;;;5077858;28;20035;-75
2022/07/19 03:06:56;;;;;;;5.07;4.68;;;25.10;79.60;;;;;;5078091;28;20081;-75
2022/07/19 03:09:22;;;;;;;5.13;4.75;;;25.00;79.30;;;;;;5077863;28;20039;-75
2022/07/19 03:11:48;;;;;;;4.85;4.43;;;25.00;79.40;;;;;;5077875;28;20057;-75
2022/07/19 03:14:13;;;;;;;4.72;4.35;;;25.10;78.50;;;;;;5095993;28;20026;-74
2022/07/19 03:16:39;;;;;;;4.93;4.20;;;25.20;77.80;;;;;;5077669;28;20108;-74
2022/07/19 03:19:05;;;;;;;5.70;4.50;;;25.20;77.90;;;;;;5095924;28;20044;-75
2022/07/19 03:24:15;;;;;;;4.72;4.32;;;25.20;77.20;;;;;;5096022;28;20035;-75
2022/07/19 03:26:40;;;;;;;4.80;4.40;;;25.20;77.00;;;;;;5077397;28;20024;-75
2022/07/19 03:29:06;;;;;;;4.47;4.25;;;25.20;77.10;;;;;;5095631;28;20649;-74
2022/07/19 03:31:32;;;;;;;5.38;4.78;;;25.20;77.00;;;;;;5095742;28;20081;-75
2022/07/19 03:33:57;;;;;;;4.85;4.43;;;25.20;77.20;;;;;;5095696;28;20020;-75
2022/07/19 03:36:23;;;;;;;5.05;4.65;;;25.20;77.00;;;;;;5095391;28;20035;-75
2022/07/19 03:38:49;;;;;;;6.53;4.63;;;25.20;77.00;;;;;;5095601;28;20028;-75
2022/07/19 03:41:14;;;;;;;5.95;3.97;;;25.10;76.80;;;;;;5094982;28;20395;-74
2022/07/19 03:43:40;;;;;;;3.92;3.67;;;25.10;76.80;;;;;;5095285;28;20085;-75
2022/07/19 03:46:06;;;;;;;3.85;3.60;;;25.20;76.80;;;;;;5095276;28;20028;-75
2022/07/19 03:48:32;;;;;;;4.38;4.07;;;25.10;76.70;;;;;;5095334;28;20028;-74
2022/07/19 03:50:57;;;;;;;4.72;4.25;;;25.10;76.60;;;;;;5095146;28;20031;-75
2022/07/19 03:53:23;;;;;;;4.13;3.83;;;25.10;76.50;;;;;;5095309;28;20044;-75
2022/07/19 03:55:49;;;;;;;3.95;3.67;;;25.20;76.20;;;;;;5095240;28;20016;-75
2022/07/19 03:58:14;;;;;;;4.05;3.65;;;25.20;76.10;;;;;;5095083;28;20024;-75
2022/07/19 04:00:40;;;;;;;7.25;4.25;;;25.10;75.80;;;;;;5094945;28;20095;-75
2022/07/19 04:03:06;;;;;;;4.55;4.22;;;25.10;76.10;;;;;;5094877;28;20044;-74
2022/07/19 04:05:34;;;;;;;4.40;3.97;;;25.10;76.20;;;;;;5094789;28;20054;-75
2022/07/19 04:07:59;;;;;;;4.10;3.72;;;25.10;76.20;;;;;;5094682;28;20028;-75
2022/07/19 04:10:25;;;;;;;4.20;3.90;;;25.10;76.10;;;;;;5094755;28;20023;-75
2022/07/19 04:12:51;;;;;;;3.92;3.63;;;25.10;76.10;;;;;;5094844;28;20038;-75
2022/07/19 04:15:17;;;;;;;6.00;4.38;;;25.10;76.10;;;;;;5094427;28;20020;-75
2022/07/19 04:17:42;;;;;;;4.03;3.72;;;25.10;76.20;;;;;;5094875;28;20020;-75
2022/07/19 04:20:09;;;;;;;4.30;4.00;;;25.10;76.20;;;;;;5095088;28;20022;-75
2022/07/19 04:22:34;;;;;;;3.97;3.58;;;25.10;76.30;;;;;;5094458;28;20020;-75
2022/07/19 04:25:02;;;;;;;5.55;3.85;;;25.10;76.40;;;;;;5094462;28;20035;-75
2022/07/19 04:27:29;;;;;;;3.92;3.63;;;25.20;76.30;;;;;;5094734;28;20357;-75
2022/07/19 04:29:55;;;;;;;5.85;3.63;;;25.20;76.20;;;;;;5094485;28;20020;-75
2022/07/19 04:32:20;;;;;;;4.10;3.67;;;25.20;75.90;;;;;;5094345;28;20099;-74
2022/07/19 04:34:47;;;;;;;4.72;3.75;;;25.20;75.30;;;;;;5076234;28;20384;-74
2022/07/19 04:37:12;;;;;;;8.35;3.67;;;25.20;75.20;;;;;;5094480;28;20016;-75
2022/07/19 04:39:39;;;;;;;3.83;3.63;;;25.20;75.60;;;;;;5094079;28;20503;-75
2022/07/19 04:42:04;;;;;;;5.45;3.40;;;25.30;75.40;;;;;;5094233;28;20028;-75
2022/07/19 04:44:30;;;;;;;3.92;3.63;;;25.30;75.10;;;;;;5094149;28;20035;-75
2022/07/19 04:46:56;;;;;;;3.45;3.25;;;25.40;74.20;;;;;;5094061;28;20067;-75
2022/07/19 04:49:22;;;;;;;6.18;3.83;;;25.50;73.90;;;;;;5075948;28;20029;-75
2022/07/19 04:51:47;;;;;;;4.25;3.25;;;25.50;74.00;;;;;;5093370;28;20020;-75
2022/07/19 04:54:13;;;;;;;3.97;3.67;;;25.50;74.10;;;;;;5093915;28;20056;-75
2022/07/19 04:56:39;;;;;;;3.83;3.53;;;25.60;74.30;;;;;;5093881;28;20433;-75
2022/07/19 04:59:05;;;;;;;4.18;3.70;;;25.60;74.30;;;;;;5093935;28;20016;-75
2022/07/19 05:01:30;;;;;;;5.30;3.90;;;25.60;74.20;;;;;;5094021;28;20057;-75
2022/07/19 05:03:56;;;;;;;4.63;3.50;;;25.60;74.40;;;;;;5093847;28;20043;-76
2022/07/19 05:06:24;;;;;;;5.65;3.72;;;25.70;74.40;;;;;;5093915;28;20020;-75
2022/07/19 05:08:52;;;;;;;3.08;2.88;;;25.70;74.40;;;;;;5093610;28;20020;-75
2022/07/19 05:11:19;;;;;;;4.07;3.78;;;25.70;74.20;;;;;;5093920;28;20024;-75
2022/07/19 05:13:45;;;;;;;5.07;3.60;;;25.80;73.90;;;;;;5093721;28;20028;-75
2022/07/19 05:16:10;;;;;;;5.30;3.30;;;25.90;74.00;;;;;;5075427;28;20024;-74
2022/07/19 05:18:36;;;;;;;3.95;3.63;;;25.90;74.40;;;;;;5093393;28;20016;-75
2022/07/19 05:21:02;;;;;;;4.13;3.20;;;26.00;74.60;;;;;;5075539;28;20099;-75
2022/07/19 05:23:28;;;;;;;3.75;3.42;;;26.00;74.10;;;;;;5093574;28;20150;-75
2022/07/19 05:25:54;;;;;;;3.75;3.55;;;26.00;74.10;;;;;;5093426;28;20028;-75
2022/07/19 05:28:20;;;;;;;4.32;3.28;;;26.10;74.30;;;;;;5093557;28;20030;-74
2022/07/19 05:30:45;;;;;;;7.07;3.85;;;26.10;74.00;;;;;;5093537;28;20024;-75
2022/07/19 05:33:11;;;;;;;5.45;3.70;;;26.20;74.50;;;;;;5093630;28;20031;-75
2022/07/19 05:35:38;;;;;;;3.47;3.17;;;26.20;74.80;;;;;;5093278;28;20024;-75
2022/07/19 05:38:03;;;;;;;4.38;3.60;;;26.30;75.30;;;;;;5093844;28;20016;-75
2022/07/19 05:40:29;;;;;;;3.42;3.13;;;26.40;75.10;;;;;;5093460;28;20106;-75
2022/07/19 05:42:55;;;;;;;3.80;3.60;;;26.40;74.40;;;;;;5075149;28;20021;-75
2022/07/19 05:45:21;;;;;;;4.10;3.70;;;26.40;73.90;;;;;;5093428;28;20081;-76
2022/07/19 05:47:47;;;;;;;4.25;3.45;;;26.40;73.80;;;;;;5075035;28;20028;-75
2022/07/19 05:50:12;;;;;;;3.83;3.60;;;26.50;74.10;;;;;;5093206;28;20084;-75
2022/07/19 05:52:38;;;;;;;5.60;3.50;;;26.50;74.80;;;;;;5093124;28;20024;-75
2022/07/19 05:55:06;;;;;;;5.03;3.50;;;26.50;76.60;;;;;;5093174;28;20028;-75
2022/07/19 05:57:31;;;;;;;5.47;3.40;;;26.60;76.10;;;;;;5093111;28;20380;-75
2022/07/19 05:59:57;;;;;;;4.60;4.07;;;26.70;75.40;;;;;;5093076;28;20026;-75
2022/07/19 06:02:24;;;;;;;8.88;3.70;;;26.70;76.60;;;;;;5074796;28;20046;-75
2022/07/19 06:04:49;;;;;;;4.78;4.07;;;26.80;77.50;;;;;;5078364;28;20411;-75
2022/07/19 06:07:15;;;;;;;4.05;3.75;;;26.90;77.60;;;;;;5097282;28;20024;-75
2022/07/19 06:09:41;;;;;;;4.32;3.55;;;26.90;77.80;;;;;;5097234;28;20034;-75
2022/07/19 06:12:07;;;;;;;8.02;3.88;;;26.90;78.50;;;;;;5097295;28;20017;-75
2022/07/19 06:14:32;;;;;;;5.47;3.65;;;27.00;79.60;;;;;;5097000;28;20028;-76
2022/07/19 06:16:59;;;;;;;5.05;4.20;;;27.00;79.80;;;;;;5097199;28;20032;-75
2022/07/19 06:19:26;;;;;;;4.13;3.65;;;27.10;79.20;;;;;;5078837;28;20008;-74
2022/07/19 06:21:52;;;;;;;4.30;3.90;;;27.10;78.80;;;;;;5097033;28;20020;-75
2022/07/19 06:24:19;;;;;;;3.75;3.47;;;27.10;78.20;;;;;;5096931;28;20508;-75
2022/07/19 06:26:44;;;;;;;3.60;3.30;;;27.10;78.40;;;;;;5096766;28;20249;-75
2022/07/19 06:29:10;;;;;;;4.05;3.75;;;27.20;76.20;;;;;;5096950;28;20042;-75
2022/07/19 06:31:36;;;;;;;4.20;3.90;;;27.20;75.00;;;;;;5096884;28;20024;-76
2022/07/19 06:34:02;;;;;;;4.47;3.40;;;27.30;75.20;;;;;;5096777;28;20016;-75
2022/07/19 06:36:27;;;;;;;5.00;4.10;;;27.30;75.70;;;;;;5096731;28;20064;-74
2022/07/19 06:38:53;;;;;;;14.88;4.30;;;27.30;76.30;;;;;;5096729;28;20040;-75
2022/07/19 06:41:19;;;;;;;7.18;3.75;;;27.30;77.20;;;;;;5096625;28;20031;-75
2022/07/19 06:43:45;;;;;;;8.15;3.67;;;27.40;75.50;;;;;;5078309;28;20020;-75
2022/07/19 06:46:11;;;;;;;6.25;3.90;;;27.40;74.10;;;;;;5096669;28;20545;-75
2022/07/19 06:48:37;;;;;;;4.43;4.03;;;27.50;74.00;;;;;;5096502;28;20028;-75
2022/07/19 06:51:05;;;;;;;3.97;3.67;;;27.50;74.20;;;;;;5096429;28;20447;-74
2022/07/19 06:53:31;;;;;;;5.55;4.05;;;27.60;75.00;;;;;;5096304;28;20028;-75
2022/07/19 06:55:57;;;;;;;5.32;3.95;;;27.60;73.80;;;;;;5096329;28;20027;-75
2022/07/19 06:58:23;;;;;;;4.15;3.83;;;27.70;74.00;;;;;;5096219;28;20019;-75
2022/07/19 07:00:48;;;;;;;3.83;3.53;;;27.80;73.50;;;;;;5096108;28;20399;-75
2022/07/19 07:03:17;;;;;;;5.88;4.20;;;27.90;73.80;;;;;;5096030;28;20051;-75
2022/07/19 07:05:43;;;;;;;13.07;4.13;;;27.90;71.60;;;;;;5096329;28;20495;-75
2022/07/19 07:08:08;;;;;;;4.47;3.80;;;27.90;72.20;;;;;;5077977;28;20043;-75
2022/07/19 07:10:34;;;;;;;5.47;4.13;;;28.00;71.20;;;;;;5096103;28;20020;-75
2022/07/19 07:13:00;;;;;;;6.28;4.20;;;28.00;70.20;;;;;;5096191;28;20032;-75
2022/07/19 07:15:26;;;;;;;6.10;3.60;;;28.00;70.00;;;;;;5094943;28;20020;-75
2022/07/19 07:17:51;;;;;;;3.45;3.25;;;28.00;71.10;;;;;;5096108;28;20483;-75
2022/07/19 07:20:17;;;;;;;4.03;3.63;;;28.10;71.80;;;;;;5096148;28;20479;-75
2022/07/19 07:22:43;;;;;;;7.35;3.83;;;28.20;72.20;;;;;;5095876;28;20020;-75
2022/07/19 07:25:09;;;;;;;5.88;3.40;;;28.30;71.20;;;;;;5095837;28;20031;-75
2022/07/19 07:27:35;;;;;;;5.35;3.88;;;28.20;69.40;;;;;;5095737;28;20081;-74
2022/07/19 07:30:02;;;;;;;5.18;3.42;;;28.20;70.40;;;;;;5095558;28;20024;-75
2022/07/19 07:32:28;;;;;;;7.10;3.72;;;28.30;69.20;;;;;;5095794;28;20081;-74
2022/07/19 07:34:54;;;;;;;3.90;3.30;;;28.30;69.60;;;;;;5095632;28;20487;-75
2022/07/19 07:37:20;;;;;;;4.07;3.72;;;28.40;68.30;;;;;;5095529;28;20391;-75
2022/07/19 07:39:46;;;;;;;3.92;3.58;;;28.40;66.60;;;;;;5077210;28;20102;-74
2022/07/19 07:42:12;;;;;;;7.25;3.45;;;28.40;66.70;;;;;;5095526;28;20031;-75
2022/07/19 07:44:38;;;;;;;4.30;3.20;;;28.40;68.00;;;;;;5095484;28;20024;-75
2022/07/19 07:47:06;;;;;;;3.70;3.20;;;28.50;67.70;;;;;;5077320;28;20031;-75
2022/07/19 07:49:32;;;;;;;3.88;3.60;;;28.60;66.70;;;;;;5077119;28;20028;-75
2022/07/19 07:51:57;;;;;;;4.07;3.67;;;28.60;65.70;;;;;;5095299;28;20025;-74
2022/07/19 07:54:23;;;;;;;3.10;2.90;;;28.70;65.50;;;;;;5095263;28;20032;-75
2022/07/19 07:56:49;;;;;;;4.20;3.40;;;28.70;64.60;;;;;;5095215;28;20499;-75
2022/07/19 07:59:15;;;;;;;4.70;3.10;;;28.80;64.60;;;;;;5095247;28;20025;-75
2022/07/19 08:01:42;;;;;;;3.75;3.00;;;28.80;66.40;;;;;;5095056;28;20025;-75
2022/07/19 08:04:09;;;;;;;2.38;2.00;;;28.90;64.10;;;;;;5094874;28;20044;-75
2022/07/19 08:06:34;;;;;;;3.35;3.05;;;29.00;57.90;;;;;;5095126;28;20069;-75
2022/07/19 08:09:00;;;;;;;3.50;2.50;;;29.10;58.40;;;;;;5095000;28;20028;-74
2022/07/19 08:11:26;;;;;;;4.13;2.05;;;29.30;57.70;;;;;;5076603;28;20353;-74
2022/07/19 08:13:52;;;;;;;2.80;2.60;;;29.30;57.20;;;;;;5094946;28;20031;-75
2022/07/19 08:16:17;;;;;;;5.32;2.58;;;29.30;56.50;;;;;;5094762;28;20103;-75
2022/07/19 08:18:43;;;;;;;3.38;2.80;;;29.30;56.80;;;;;;5076655;28;20024;-75
2022/07/19 08:21:09;;;;;;;3.75;2.88;;;29.40;58.40;;;;;;5094788;28;20039;-75
2022/07/19 08:23:35;;;;;;;3.20;3.00;;;29.40;59.40;;;;;;5094732;28;20028;-75
2022/07/19 08:26:02;;;;;;;3.17;2.88;;;29.40;59.00;;;;;;5076220;28;20020;-75
2022/07/19 08:28:27;;;;;;;2.15;2.05;;;29.40;58.40;;;;;;5103389;28;20032;-75
2022/07/19 08:30:54;;;;;;;2.33;2.13;;;29.50;57.50;;;;;;5106351;28;20028;-75
2022/07/19 08:33:19;;;;;;;3.55;2.35;;;29.70;56.00;;;;;;5102855;28;20028;-75
2022/07/19 08:35:45;;;;;;;2.20;1.98;;;29.60;52.60;;;;;;5072899;28;20028;-75
2022/07/19 08:38:11;;;;;;;2.42;1.90;;;29.60;54.20;;;;;;5093950;28;20015;-75
2022/07/19 08:40:41;;;;;;;3.78;2.03;;;29.60;52.90;;;;;;5107845;28;20072;-75
2022/07/19 08:43:08;;;;;;;1.98;1.77;;;29.70;52.20;;;;;;5092053;28;20376;-75
2022/07/19 08:45:36;;;;;;;2.00;1.52;;;29.80;52.00;;;;;;5091638;28;20040;-75
2022/07/19 08:48:05;;;;;;;1.63;1.52;;;29.80;52.80;;;;;;5110024;28;20088;-75
2022/07/19 08:50:33;;;;;;;6.25;1.85;;;29.80;51.40;;;;;;5091774;28;20110;-74
2022/07/19 08:53:01;;;;;;;5.68;1.63;;;29.90;51.70;;;;;;5109379;28;20020;-75
2022/07/19 08:55:27;;;;;;;3.13;1.77;;;30.00;51.20;;;;;;5092062;28;20028;-75
2022/07/19 08:58:01;;;;;;;3.50;1.83;;;30.00;52.40;;;;;;5111279;28;20482;-75
2022/07/19 09:00:33;;;;;;;1.90;1.80;;;30.10;52.30;;;;;;5110957;28;20015;-75
2022/07/19 09:03:03;;;;;;;;;;;30.30;48.90;;;;;;5111477;28;20054;-75
2022/07/19 09:05:29;;;;;;;2.15;1.80;;;30.20;48.90;;;;;;5110526;28;19911;-75
2022/07/19 09:08:10;;;;;;;3.13;1.65;;;30.20;50.80;;;;;;5110689;28;20068;-76
2022/07/19 09:11:33;;;;;;;1.45;1.38;;;30.30;49.10;;;;;;5092185;28;20030;-75
2022/07/19 09:13:35;;;;;;;1.33;1.30;;;30.30;50.30;;;;;;5099746;28;20040;-75
2022/07/19 09:16:01;;;;;;;3.70;1.77;;;30.40;48.60;;;;;;5110546;28;20019;-75
2022/07/19 09:18:33;;;;;;;5.85;1.90;;;30.50;50.00;;;;;;5111324;28;20027;-74
2022/07/19 09:21:03;;;;;;;1.95;1.83;;;30.40;48.60;;;;;;5110929;28;20101;-75
2022/07/19 09:23:30;;;;;;;2.40;1.77;;;30.30;49.00;;;;;;5110751;28;20308;-75
2022/07/19 09:25:58;;;;;;;2.72;1.92;;;30.40;50.40;;;;;;5110786;28;20077;-74
2022/07/19 09:28:26;;;;;;;4.38;1.67;;;30.40;49.30;;;;;;5110845;28;20024;-75
2022/07/19 09:30:53;;;;;;;2.90;1.80;;;30.40;49.20;;;;;;5094048;28;20099;-74
2022/07/19 09:33:22;;;;;;;3.30;1.92;;;30.60;50.30;;;;;;5072347;28;20070;-75
2022/07/19 09:35:57;;;;;;;6.03;1.83;;;30.70;49.60;;;;;;5091123;28;20028;-74
2022/07/19 09:38:30;;;;;;;1.92;1.67;;;30.70;50.00;;;;;;5090620;28;20718;-75
2022/07/19 09:41:16;;;;;;;2.53;2.33;;;30.90;48.50;;;;;;5090149;28;20022;-75
2022/07/19 09:43:51;;;;;;;3.22;2.00;;;31.00;48.90;;;;;;5072047;28;20025;-75
2022/07/19 09:46:35;;;;;;;2.92;2.00;;;31.00;50.60;;;;;;5090693;28;20028;-75
2022/07/19 09:49:16;;;;;;;4.30;2.10;;;31.10;47.30;;;;;;5090357;28;20069;-75
2022/07/19 09:51:43;;;;;;;2.00;1.90;;;31.20;48.70;;;;;;5090446;28;20028;-75
2022/07/19 09:54:14;;;;;;;1.92;1.83;;;31.20;47.70;;;;;;5090829;28;20086;-76
2022/07/19 09:56:42;;;;;;;1.90;1.80;;;31.30;47.10;;;;;;5090334;28;20034;-74
2022/07/19 09:59:09;;;;;;;4.22;1.75;;;31.20;46.70;;;;;;5071803;28;20085;-75
2022/07/19 10:01:37;;;;;;;2.55;1.63;;;31.20;45.80;;;;;;5072767;28;20483;-75
2022/07/19 10:04:12;;;;;;;2.08;1.90;;;31.20;46.50;;;;;;5089753;28;20044;-74
2022/07/19 10:06:39;;;;;;;2.08;1.90;;;31.30;47.10;;;;;;5088996;28;20034;-75
2022/07/19 10:09:08;;;;;;;4.75;1.63;;;31.60;46.40;;;;;;5071471;28;20111;-75
2022/07/19 10:11:35;;;;;;;3.88;2.00;;;31.60;45.70;;;;;;5090764;28;20028;-76
2022/07/19 10:14:01;;;;;;;3.53;2.13;;;31.60;46.30;;;;;;5090395;28;20024;-74
2022/07/19 10:16:55;;;;;;;3.17;2.25;;;31.70;45.10;;;;;;5090316;28;20028;-75
2022/07/19 10:20:07;;;;;;;1.90;1.80;;;31.70;44.80;;;;;;5070078;28;20031;-75
2022/07/19 10:22:34;;;;;;;2.15;1.95;;;31.60;43.80;;;;;;5083055;28;20019;-74
2022/07/19 10:25:20;;;;;;;1.80;1.70;;;31.70;44.10;;;;;;5109737;28;20073;-74
2022/07/19 10:27:54;;;;;;;3.22;2.10;;;31.90;45.20;;;;;;5109768;28;20036;-74
2022/07/19 10:30:24;;;;;;;2.55;1.70;;;32.00;45.70;;;;;;5109515;28;20023;-74
2022/07/19 10:32:52;;;;;;;3.45;1.70;;;32.10;45.00;;;;;;5109646;28;20028;-75
2022/07/19 10:35:31;;;;;;;1.85;1.75;;;32.20;45.30;;;;;;5092314;28;20103;-75
2022/07/19 10:38:10;;;;;;;2.03;1.92;;;32.30;45.40;;;;;;5092594;28;20031;-75
2022/07/19 10:40:42;;;;;;;5.38;1.98;;;32.40;45.40;;;;;;5110281;28;20020;-76
2022/07/19 10:43:15;;;;;;;1.98;1.70;;;32.50;45.40;;;;;;5110156;28;20022;-75
2022/07/19 10:45:56;;;;;;;2.70;2.22;;;32.50;44.60;;;;;;5109550;28;20032;-76
2022/07/19 10:48:47;;;;;;;2.90;2.42;;;32.40;43.90;;;;;;5091823;28;20024;-75
2022/07/19 10:51:34;;;;;;;2.15;2.00;;;32.50;44.90;;;;;;5111143;28;20053;-75
2022/07/19 10:54:02;;;;;;;1.98;1.88;;;32.60;43.40;;;;;;5113930;28;20028;-75
2022/07/19 10:56:29;;;;;;;2.88;1.80;;;32.50;43.60;;;;;;5114271;28;20042;-76
2022/07/19 10:59:05;;;;;;;2.10;2.00;;;32.70;44.30;;;;;;5113782;28;20027;-75
2022/07/19 11:01:34;;;;;;;4.53;1.80;;;32.80;44.10;;;;;;5095320;28;20055;-75
2022/07/19 11:04:22;;;;;;;3.08;2.25;;;32.80;43.40;;;;;;5113133;28;20035;-76
2022/07/19 11:06:48;;;;;;;2.83;1.95;;;32.90;42.60;;;;;;5074855;28;20024;-75
2022/07/19 11:09:14;;;;;;;2.47;1.75;;;33.00;43.70;;;;;;5093736;28;20024;-75
2022/07/19 11:11:41;;;;;;;2.65;2.05;;;33.00;42.80;;;;;;5074134;28;20020;-76
2022/07/19 11:14:06;;;;;;;2.28;2.17;;;32.90;43.90;;;;;;5074219;28;20479;-75
2022/07/19 11:16:32;;;;;;;1.65;1.55;;;32.90;42.20;;;;;;5075443;28;20028;-75
2022/07/19 11:19:06;;;;;;;2.05;1.95;;;32.90;42.40;;;;;;5074763;28;20024;-75
2022/07/19 11:21:35;;;;;;;3.80;1.90;;;32.90;42.60;;;;;;5092781;28;20111;-75
2022/07/19 11:24:01;;;;;;;2.85;1.58;;;33.00;43.30;;;;;;5074597;28;20024;-75
2022/07/19 11:26:39;;;;;;;1.83;1.70;;;33.20;42.80;;;;;;5093290;28;20039;-75
2022/07/19 11:29:05;;;;;;;1.80;1.70;;;33.30;41.70;;;;;;5074686;28;20527;-75
2022/07/19 11:31:31;;;;;;;2.13;1.90;;;33.30;41.90;;;;;;5092171;28;20035;-75
2022/07/19 11:33:57;;;;;;;2.50;1.98;;;33.20;41.70;;;;;;5093105;28;20072;-75
2022/07/19 11:36:24;;;;;;;1.80;1.70;;;33.30;42.70;;;;;;5092296;28;20028;-75
2022/07/19 11:38:58;;;;;;;2.78;2.03;;;33.30;42.30;;;;;;5092269;28;20016;-75
2022/07/19 11:41:30;;;;;;;4.22;1.98;;;33.50;43.70;;;;;;5092525;28;20024;-75
2022/07/19 11:43:57;;;;;;;3.40;2.10;;;33.50;42.50;;;;;;5092567;28;20479;-75
2022/07/19 11:46:30;;;;;;;2.30;2.20;;;33.60;42.20;;;;;;5073934;28;20678;-74
2022/07/19 11:49:01;;;;;;;3.47;1.80;;;33.80;43.00;;;;;;5073895;28;20536;-74
2022/07/19 11:51:28;;;;;;;1.70;1.60;;;34.00;42.80;;;;;;5073873;28;20391;-75
2022/07/19 11:53:57;;;;;;;2.25;1.92;;;34.00;41.30;;;;;;5092242;28;20016;-74
2022/07/19 11:56:26;;;;;;;2.72;2.03;;;34.00;41.60;;;;;;5091180;28;20066;-74
2022/07/19 11:58:54;;;;;;;2.05;1.95;;;34.00;40.40;;;;;;5073036;28;20016;-75
2022/07/19 12:01:27;;;;;;;7.50;2.10;;;34.10;42.00;;;;;;5092097;28;20028;-75
2022/07/19 12:03:54;;;;;;;3.15;1.98;;;34.30;42.10;;;;;;5073940;28;20128;-75
2022/07/19 12:06:36;;;;;;;2.83;1.75;;;34.30;41.80;;;;;;5091670;28;20077;-75
2022/07/19 12:09:10;;;;;;;3.13;1.75;;;34.50;41.50;;;;;;5091957;28;20384;-75
2022/07/19 12:11:42;;;;;;;3.88;2.08;;;34.40;40.10;;;;;;5091794;28;20027;-75
2022/07/19 12:14:26;;;;;;;2.90;1.83;;;34.30;40.90;;;;;;5091475;28;20032;-75
2022/07/19 12:17:15;;;;;;;3.58;2.00;;;34.40;40.70;;;;;;5074126;28;20086;-75
2022/07/19 12:19:48;;;;;;;2.17;2.08;;;34.50;40.50;;;;;;5092433;28;20625;-75
2022/07/19 12:22:32;;;;;;;2.38;2.03;;;34.50;39.70;;;;;;5092510;28;20020;-75
2022/07/19 12:24:58;;;;;;;2.40;2.20;;;34.50;39.20;;;;;;5094487;28;20089;-75
2022/07/19 12:27:27;;;;;;;2.83;1.95;;;34.70;39.30;;;;;;5094690;28;20476;-73
2022/07/19 12:29:55;;;;;;;2.33;2.13;;;34.70;39.10;;;;;;5094662;28;20065;-73
2022/07/19 12:32:32;;;;;;;2.30;2.13;;;34.80;39.10;;;;;;5094603;28;20035;-72
2022/07/19 12:35:13;;;;;;;2.95;1.98;;;34.80;38.50;;;;;;5094415;28;20024;-73
2022/07/19 12:37:47;;;;;;;1.70;1.60;;;35.00;39.40;;;;;;5094940;28;20024;-73
2022/07/19 12:40:22;;;;;;;1.95;1.83;;;35.00;38.50;;;;;;5094412;28;20024;-73
2022/07/19 12:42:59;;;;;;;4.32;1.90;;;35.10;38.50;;;;;;5098110;28;20479;-73
2022/07/19 12:45:26;;;;;;;2.35;2.25;;;35.10;38.60;;;;;;5110166;28;20023;-73
2022/07/19 12:47:52;;;;;;;3.58;2.20;;;35.10;37.50;;;;;;5109990;28;20024;-72
2022/07/19 12:50:26;;;;;;;5.63;2.35;;;34.90;38.20;;;;;;5109582;28;20046;-73
2022/07/19 12:52:54;;;;;;;3.45;2.42;;;35.00;37.60;;;;;;5109581;28;20024;-72
2022/07/19 12:55:23;;;;;;;3.70;2.30;;;34.90;38.10;;;;;;5110365;28;20542;-72